createdAt,value
2018-01-03T00:02:21.480Z,4.78
2018-01-03T00:04:49.104Z,4.75
2018-01-03T00:07:16.671Z,4.79
2018-01-03T00:09:44.246Z,4.78
2018-01-03T00:12:11.855Z,4.74
2018-01-03T00:14:39.430Z,4.69
2018-01-03T00:17:07.001Z,4.73
2018-01-03T00:19:34.609Z,4.72
2018-01-03T00:22:02.207Z,4.64
2018-01-03T00:24:29.805Z,4.53
2018-01-03T00:26:57.402Z,4.51
2018-01-03T00:29:24.989Z,4.48
2018-01-03T00:31:52.559Z,4.45
2018-01-03T00:34:20.173Z,4.51
2018-01-03T00:36:47.747Z,4.56
2018-01-03T00:39:15.310Z,4.61
2018-01-03T00:41:42.936Z,4.61
2018-01-03T00:44:10.522Z,4.70
2018-01-03T00:46:38.103Z,4.71
2018-01-03T00:49:05.728Z,4.76
2018-01-03T00:51:33.349Z,4.84
2018-01-03T00:54:00.926Z,4.87
2018-01-03T00:56:28.538Z,4.83
2018-01-03T00:58:56.115Z,4.76
2018-01-03T01:01:23.736Z,4.82
2018-01-03T01:03:51.376Z,4.88
2018-01-03T01:06:18.958Z,4.93
2018-01-03T01:08:46.537Z,4.86
2018-01-03T01:11:14.162Z,4.71
2018-01-03T01:13:41.731Z,4.75
2018-01-03T01:16:09.301Z,4.73
2018-01-03T01:18:36.895Z,4.69
2018-01-03T01:21:04.500Z,4.70
2018-01-03T01:23:32.084Z,4.72
2018-01-03T01:25:59.713Z,4.76
2018-01-03T01:28:27.270Z,4.76
2018-01-03T01:30:54.862Z,4.80
2018-01-03T01:33:22.477Z,4.87
2018-01-03T01:35:50.069Z,4.89
2018-01-03T01:38:17.654Z,4.91
2018-01-03T01:40:45.250Z,4.94
2018-01-03T01:43:12.837Z,4.95
2018-01-03T01:45:40.397Z,4.97
2018-01-03T01:48:08.010Z,4.96
2018-01-03T01:50:35.569Z,5.02
2018-01-03T01:53:03.173Z,5.08
2018-01-03T01:55:30.785Z,5.14
2018-01-03T01:57:58.330Z,5.12
2018-01-03T02:00:25.882Z,5.12
2018-01-03T02:02:53.603Z,5.12
2018-01-03T02:05:21.161Z,5.13
2018-01-03T02:07:48.869Z,5.11
2018-01-03T02:10:16.489Z,5.12
2018-01-03T02:12:44.063Z,5.12
2018-01-03T02:15:11.640Z,5.09
2018-01-03T02:17:39.247Z,5.03
2018-01-03T02:20:06.816Z,5.06
2018-01-03T02:22:34.409Z,5.03
2018-01-03T02:25:02.021Z,5.05
2018-01-03T02:27:29.582Z,5.07
2018-01-03T02:29:57.147Z,5.04
2018-01-03T02:32:24.757Z,5.03
2018-01-03T02:34:52.344Z,5.13
2018-01-03T02:37:19.923Z,5.13
2018-01-03T02:39:47.570Z,5.19
2018-01-03T02:42:15.162Z,5.24
2018-01-03T02:44:42.734Z,5.22
2018-01-03T02:47:10.334Z,5.22
2018-01-03T02:49:37.909Z,5.24
2018-01-03T02:52:05.489Z,5.25
2018-01-03T02:54:33.094Z,5.26
2018-01-03T02:57:00.851Z,5.25
2018-01-03T02:59:28.445Z,5.29
2018-01-03T03:01:56.064Z,5.26
2018-01-03T03:04:23.696Z,5.24
2018-01-03T03:06:51.275Z,5.09
2018-01-03T03:09:18.884Z,5.00
2018-01-03T03:11:46.430Z,4.93
2018-01-03T03:14:13.999Z,4.93
2018-01-03T03:16:41.613Z,4.95
2018-01-03T03:19:09.184Z,4.95
2018-01-03T03:21:36.750Z,5.03
2018-01-03T03:24:04.392Z,5.03
2018-01-03T03:26:31.980Z,5.08
2018-01-03T03:28:59.558Z,5.09
2018-01-03T03:31:27.172Z,5.11
2018-01-03T03:33:54.850Z,5.11
2018-01-03T03:36:22.438Z,5.12
2018-01-03T03:38:50.041Z,5.11
2018-01-03T03:41:17.607Z,5.15
2018-01-03T03:43:45.184Z,5.10
2018-01-03T03:46:12.793Z,5.13
2018-01-03T03:48:40.420Z,5.15
2018-01-03T03:51:08.002Z,5.15
2018-01-03T03:53:35.666Z,5.16
2018-01-03T03:56:03.251Z,5.18
2018-01-03T03:58:30.830Z,5.16
2018-01-03T04:00:58.440Z,5.16
2018-01-03T04:03:26.007Z,5.15
2018-01-03T04:05:53.571Z,5.15
2018-01-03T04:08:21.186Z,5.13
2018-01-03T04:10:48.753Z,5.09
2018-01-03T04:13:16.317Z,5.09
2018-01-03T04:15:43.920Z,5.08
2018-01-03T04:18:11.494Z,5.06
2018-01-03T04:20:39.051Z,5.02
2018-01-03T04:23:06.656Z,5.03
2018-01-03T04:25:34.253Z,5.06
2018-01-03T04:28:01.827Z,5.10
2018-01-03T04:30:29.441Z,5.18
2018-01-03T04:32:57.014Z,5.17
2018-01-03T04:35:24.593Z,5.15
2018-01-03T04:37:52.197Z,5.09
2018-01-03T04:40:19.777Z,4.96
2018-01-03T04:42:47.369Z,4.97
2018-01-03T04:45:14.985Z,4.95
2018-01-03T04:47:42.546Z,4.90
2018-01-03T04:50:10.128Z,4.92
2018-01-03T04:52:37.754Z,4.93
2018-01-03T04:55:05.339Z,5.00
2018-01-03T04:57:32.914Z,5.08
2018-01-03T05:00:00.607Z,5.10
2018-01-03T05:02:28.176Z,5.09
2018-01-03T05:04:55.761Z,5.08
2018-01-03T05:07:23.398Z,5.15
2018-01-03T05:09:50.957Z,5.18
2018-01-03T05:12:18.530Z,5.20
2018-01-03T05:14:46.144Z,5.23
2018-01-03T05:17:13.711Z,5.27
2018-01-03T05:19:41.280Z,5.25
2018-01-03T05:22:08.890Z,5.21
2018-01-03T05:24:36.477Z,5.21
2018-01-03T05:27:04.052Z,5.24
2018-01-03T05:29:31.673Z,5.19
2018-01-03T05:31:59.238Z,5.16
2018-01-03T05:34:26.805Z,5.20
2018-01-03T05:36:54.419Z,5.25
2018-01-03T05:39:21.991Z,5.29
2018-01-03T05:41:49.557Z,5.27
2018-01-03T05:44:17.164Z,5.23
2018-01-03T05:46:44.755Z,5.27
2018-01-03T05:49:12.380Z,5.27
2018-01-03T05:51:39.981Z,5.23
2018-01-03T05:54:07.559Z,5.25
2018-01-03T05:56:35.136Z,5.22
2018-01-03T05:59:02.858Z,5.32
2018-01-03T06:01:30.641Z,5.34
2018-01-03T06:03:58.313Z,5.38
2018-01-03T06:06:25.918Z,5.39
2018-01-03T06:08:53.487Z,5.44
2018-01-03T06:11:21.069Z,5.50
2018-01-03T06:13:48.733Z,5.47
2018-01-03T06:16:16.302Z,5.47
2018-01-03T06:18:43.915Z,5.47
2018-01-03T06:21:11.514Z,5.46
2018-01-03T06:23:39.073Z,5.46
2018-01-03T06:26:06.661Z,5.47
2018-01-03T06:28:34.275Z,5.53
2018-01-03T06:31:01.847Z,5.56
2018-01-03T06:33:29.472Z,5.51
2018-01-03T06:35:57.093Z,5.55
2018-01-03T06:38:24.678Z,5.56
2018-01-03T06:40:52.271Z,5.68
2018-01-03T06:43:19.879Z,5.74
2018-01-03T06:45:47.443Z,5.75
2018-01-03T06:48:15.006Z,5.73
2018-01-03T06:50:42.628Z,5.78
2018-01-03T06:53:10.195Z,5.83
2018-01-03T06:55:37.769Z,5.84
2018-01-03T06:58:05.391Z,5.96
2018-01-03T07:00:32.973Z,6.09
2018-01-03T07:03:00.553Z,6.22
2018-01-03T07:05:28.155Z,6.33
2018-01-03T07:07:55.719Z,6.45
2018-01-03T07:10:23.612Z,6.56
2018-01-03T07:12:51.233Z,6.67
2018-01-03T07:15:18.820Z,6.86
2018-01-03T07:17:46.382Z,7.16
2018-01-03T07:20:13.994Z,7.42
2018-01-03T07:22:41.663Z,7.56
2018-01-03T07:25:09.235Z,7.72
2018-01-03T07:27:36.869Z,7.81
2018-01-03T07:30:04.449Z,7.98
2018-01-03T07:32:32.023Z,8.26
2018-01-03T07:34:59.635Z,8.85
2018-01-03T07:37:27.217Z,10.00
2018-01-03T07:39:54.844Z,10.26
2018-01-03T07:42:22.473Z,10.25
2018-01-03T07:44:50.082Z,10.00
2018-01-03T07:47:17.662Z,9.72
2018-01-03T07:49:45.244Z,9.41
2018-01-03T07:52:12.853Z,9.23
2018-01-03T07:54:40.413Z,9.08
2018-01-03T07:57:07.977Z,9.08
2018-01-03T07:59:35.594Z,9.11
2018-01-03T08:02:03.184Z,9.18
2018-01-03T08:04:30.751Z,9.15
2018-01-03T08:06:58.351Z,9.14
2018-01-03T08:09:25.938Z,9.04
2018-01-03T08:11:53.517Z,9.09
2018-01-03T08:14:21.134Z,9.18
2018-01-03T08:16:48.716Z,9.16
2018-01-03T08:19:16.314Z,9.29
2018-01-03T08:21:44.009Z,9.42
2018-01-03T08:24:11.584Z,9.45
2018-01-03T08:26:39.156Z,9.49
2018-01-03T08:29:06.818Z,9.38
2018-01-03T08:31:34.387Z,9.53
2018-01-03T08:34:01.964Z,9.79
2018-01-03T08:36:29.580Z,9.97
2018-01-03T08:38:57.198Z,9.86
2018-01-03T08:41:24.763Z,9.67
2018-01-03T08:43:52.355Z,9.79
2018-01-03T08:46:19.936Z,9.87
2018-01-03T08:48:47.509Z,9.94
2018-01-03T08:51:15.134Z,10.13
2018-01-03T08:53:42.729Z,10.05
2018-01-03T08:56:10.313Z,10.18
2018-01-03T08:58:37.928Z,10.07
2018-01-03T09:01:05.509Z,10.27
2018-01-03T09:03:33.076Z,10.29
2018-01-03T09:06:00.680Z,10.06
2018-01-03T09:08:28.258Z,10.04
2018-01-03T09:10:55.816Z,9.86
2018-01-03T09:13:23.446Z,9.79
2018-01-03T09:15:51.019Z,9.88
2018-01-03T09:18:19.457Z,9.89
2018-01-03T09:20:47.070Z,9.72
2018-01-03T09:23:14.659Z,9.59
2018-01-03T09:25:42.361Z,9.54
2018-01-03T09:28:09.957Z,9.66
2018-01-03T09:30:37.527Z,9.72
2018-01-03T09:33:05.134Z,9.48
2018-01-03T09:35:32.767Z,9.29
2018-01-03T09:38:00.345Z,9.41
2018-01-03T09:40:27.916Z,9.51
2018-01-03T09:42:55.532Z,9.75
2018-01-03T09:45:23.108Z,9.68
2018-01-03T09:47:50.673Z,9.71
2018-01-03T09:50:18.297Z,9.96
2018-01-03T09:52:45.875Z,10.01
2018-01-03T09:55:13.465Z,10.15
2018-01-03T09:57:41.091Z,10.15
2018-01-03T10:00:08.672Z,10.24
2018-01-03T10:02:36.280Z,10.34
2018-01-03T10:05:03.926Z,10.15
2018-01-03T10:07:31.516Z,10.22
2018-01-03T10:09:59.091Z,10.14
2018-01-03T10:12:26.718Z,10.07
2018-01-03T10:14:54.288Z,10.15
2018-01-03T10:17:22.339Z,10.21
2018-01-03T10:19:49.949Z,10.32
2018-01-03T10:22:17.539Z,10.51
2018-01-03T10:24:45.128Z,10.65
2018-01-03T10:27:12.735Z,10.61
2018-01-03T10:29:40.325Z,10.47
2018-01-03T10:32:07.904Z,10.30
2018-01-03T10:34:35.565Z,10.46
2018-01-03T10:37:03.132Z,10.41
2018-01-03T10:39:30.704Z,10.28
2018-01-03T10:41:58.342Z,10.29
2018-01-03T10:44:25.918Z,10.54
2018-01-03T10:46:53.490Z,10.82
2018-01-03T10:49:21.109Z,10.81
2018-01-03T10:51:48.687Z,10.67
2018-01-03T10:54:16.251Z,10.42
2018-01-03T10:56:43.833Z,10.78
2018-01-03T10:59:11.391Z,11.01
2018-01-03T11:01:38.983Z,11.05
2018-01-03T11:04:06.673Z,11.12
2018-01-03T11:06:34.270Z,11.05
2018-01-03T11:09:01.844Z,10.78
2018-01-03T11:11:29.462Z,10.65
2018-01-03T11:13:57.041Z,10.52
2018-01-03T11:16:24.607Z,10.67
2018-01-03T11:18:52.202Z,11.12
2018-01-03T11:21:19.842Z,11.75
2018-01-03T11:23:47.428Z,13.31
2018-01-03T11:26:15.064Z,14.35
2018-01-03T11:28:43.086Z,14.38
2018-01-03T11:31:10.667Z,13.23
2018-01-03T11:33:38.337Z,12.50
2018-01-03T11:36:06.079Z,12.33
2018-01-03T11:38:33.892Z,11.70
2018-01-03T11:41:01.519Z,11.19
2018-01-03T11:43:29.117Z,10.67
2018-01-03T11:45:56.704Z,10.63
2018-01-03T11:48:24.331Z,10.72
2018-01-03T11:50:51.912Z,10.48
2018-01-03T11:53:19.494Z,10.63
2018-01-03T11:55:47.118Z,10.71
2018-01-03T11:58:14.701Z,10.48
2018-01-03T12:00:42.311Z,10.46
2018-01-03T12:03:09.935Z,10.43
2018-01-03T12:05:37.525Z,10.71
2018-01-03T12:08:05.108Z,10.62
2018-01-03T12:10:32.731Z,10.47
2018-01-03T12:13:00.306Z,10.07
2018-01-03T12:15:27.869Z,10.35
2018-01-03T12:17:55.508Z,10.61
2018-01-03T12:20:23.089Z,10.89
2018-01-03T12:22:50.673Z,10.86
2018-01-03T12:25:18.269Z,10.78
2018-01-03T12:27:45.838Z,10.82
2018-01-03T12:30:13.391Z,10.82
2018-01-03T12:32:40.992Z,10.62
2018-01-03T12:35:08.573Z,10.71
2018-01-03T12:37:36.137Z,10.60
2018-01-03T12:40:03.855Z,10.63
2018-01-03T12:42:31.419Z,10.70
2018-01-03T12:44:59.027Z,10.77
2018-01-03T12:47:26.638Z,10.78
2018-01-03T12:49:54.212Z,10.67
2018-01-03T12:52:21.775Z,10.35
2018-01-03T12:54:49.414Z,10.44
2018-01-03T12:57:16.989Z,10.60
2018-01-03T12:59:44.716Z,10.43
2018-01-03T13:02:12.326Z,10.30
2018-01-03T13:04:39.906Z,10.42
2018-01-03T13:07:07.529Z,10.59
2018-01-03T13:09:35.141Z,10.60
2018-01-03T13:12:02.838Z,10.73
2018-01-03T13:14:30.487Z,10.96
2018-01-03T13:16:58.119Z,10.84
2018-01-03T13:19:25.738Z,10.51
2018-01-03T13:21:53.325Z,10.53
2018-01-03T13:24:21.038Z,10.56
2018-01-03T13:26:48.593Z,10.64
2018-01-03T13:29:16.177Z,10.69
2018-01-03T13:31:43.850Z,10.77
2018-01-03T13:34:11.431Z,10.83
2018-01-03T13:36:38.998Z,10.76
2018-01-03T13:39:06.685Z,10.75
2018-01-03T13:41:34.248Z,10.74
2018-01-03T13:44:01.804Z,10.80
2018-01-03T13:46:29.417Z,10.78
2018-01-03T13:48:57.016Z,10.74
2018-01-03T13:51:24.579Z,10.53
2018-01-03T13:53:52.280Z,10.38
2018-01-03T13:56:19.936Z,10.33
2018-01-03T13:58:47.498Z,10.32
2018-01-03T14:01:15.482Z,10.15
2018-01-03T14:03:43.055Z,10.01
2018-01-03T14:06:10.782Z,9.88
2018-01-03T14:08:38.400Z,9.86
2018-01-03T14:11:06.028Z,9.88
2018-01-03T14:13:33.597Z,9.95
2018-01-03T14:16:01.432Z,9.89
2018-01-03T14:18:29.243Z,9.84
2018-01-03T14:20:56.835Z,9.80
2018-01-03T14:23:24.457Z,9.78
2018-01-03T14:25:52.040Z,9.65
2018-01-03T14:28:20.894Z,9.59
2018-01-03T14:30:48.569Z,9.55
2018-01-03T14:33:16.156Z,9.51
2018-01-03T14:35:43.703Z,9.42
2018-01-03T14:38:11.296Z,9.37
2018-01-03T14:40:38.865Z,9.38
2018-01-03T14:43:06.647Z,9.41
2018-01-03T14:45:34.308Z,9.41
2018-01-03T14:48:01.987Z,9.36
2018-01-03T14:50:29.562Z,9.29
2018-01-03T14:52:57.313Z,9.25
2018-01-03T14:55:24.882Z,9.23
2018-01-03T14:57:52.460Z,9.25
2018-01-03T15:00:20.279Z,9.25
2018-01-03T15:02:48.101Z,9.18
2018-01-03T15:05:15.714Z,9.11
2018-01-03T15:07:43.369Z,9.04
2018-01-03T15:10:11.057Z,8.93
2018-01-03T15:12:38.697Z,8.91
2018-01-03T15:15:06.313Z,8.86
2018-01-03T15:17:33.934Z,8.78
2018-01-03T15:20:01.673Z,8.56
2018-01-03T15:22:29.272Z,8.40
2018-01-03T15:24:56.830Z,8.27
2018-01-03T15:27:24.465Z,8.20
2018-01-03T15:29:52.067Z,8.05
2018-01-03T15:32:19.644Z,7.93
2018-01-03T15:34:47.221Z,7.82
2018-01-03T15:37:14.907Z,7.82
2018-01-03T15:39:42.494Z,7.85
2018-01-03T15:42:10.069Z,7.76
2018-01-03T15:44:37.671Z,7.77
2018-01-03T15:47:05.249Z,7.68
2018-01-03T15:49:33.010Z,7.52
2018-01-03T15:52:00.624Z,7.31
2018-01-03T15:54:28.347Z,7.06
2018-01-03T15:56:58.669Z,6.85
2018-01-03T15:59:29.922Z,6.71
2018-01-03T16:02:00.694Z,6.52
2018-01-03T16:04:28.395Z,6.36
2018-01-03T16:06:56.088Z,6.17
2018-01-03T16:09:23.747Z,6.11
2018-01-03T16:11:51.434Z,5.91
2018-01-03T16:14:19.001Z,5.73
2018-01-03T16:16:46.725Z,5.54
2018-01-03T16:19:14.325Z,5.38
2018-01-03T16:21:41.879Z,5.32
2018-01-03T16:24:09.452Z,5.17
2018-01-03T16:26:37.055Z,5.06
2018-01-03T16:29:04.619Z,4.90
2018-01-03T16:31:32.325Z,4.91
2018-01-03T16:33:59.899Z,4.83
2018-01-03T16:36:27.483Z,4.86
2018-01-03T16:38:55.047Z,4.77
2018-01-03T16:41:22.662Z,4.66
2018-01-03T16:43:50.384Z,4.66
2018-01-03T16:46:18.006Z,4.74
2018-01-03T16:48:45.620Z,4.59
2018-01-03T16:51:13.171Z,4.51
2018-01-03T16:53:40.752Z,4.39
2018-01-03T16:56:12.385Z,4.27
2018-01-03T16:58:44.775Z,4.25
2018-01-03T17:01:16.544Z,4.12
2018-01-03T17:03:44.597Z,3.94
2018-01-03T17:06:12.259Z,3.84
2018-01-03T17:08:39.851Z,3.74
2018-01-03T17:11:07.578Z,3.66
2018-01-03T17:13:35.240Z,3.59
2018-01-03T17:16:02.928Z,3.49
2018-01-03T17:18:30.519Z,3.44
2018-01-03T17:20:58.241Z,3.38
2018-01-03T17:23:25.840Z,3.30
2018-01-03T17:25:53.415Z,3.24
2018-01-03T17:28:20.976Z,3.38
2018-01-03T17:30:48.583Z,3.32
2018-01-03T17:33:16.152Z,3.18
2018-01-03T17:35:43.714Z,3.09
2018-01-03T17:38:11.298Z,2.99
2018-01-03T17:40:38.869Z,2.89
2018-01-03T17:43:06.449Z,2.91
2018-01-03T17:45:34.061Z,2.94
2018-01-03T17:48:01.622Z,2.89
2018-01-03T17:50:29.183Z,2.88
2018-01-03T17:52:56.765Z,2.86
2018-01-03T17:55:24.326Z,2.82
2018-01-03T17:57:51.933Z,2.80
2018-01-03T18:00:19.585Z,2.75
2018-01-03T18:02:47.143Z,2.69
2018-01-03T18:05:14.734Z,2.70
2018-01-03T18:07:42.320Z,2.65
2018-01-03T18:10:10.044Z,2.55
2018-01-03T18:12:37.654Z,2.51
2018-01-03T18:15:05.383Z,2.52
2018-01-03T18:17:32.942Z,2.48
2018-01-03T18:20:00.669Z,2.47
2018-01-03T18:22:28.282Z,2.48
2018-01-03T18:24:56.550Z,2.48
2018-01-03T18:27:24.197Z,2.46
2018-01-03T18:29:51.813Z,2.42
2018-01-03T18:32:19.385Z,2.36
2018-01-03T18:34:46.946Z,2.31
2018-01-03T18:37:14.530Z,2.30
2018-01-03T18:39:42.160Z,2.30
2018-01-03T18:42:09.875Z,2.26
2018-01-03T18:44:37.460Z,2.28
2018-01-03T18:47:04.998Z,2.26
2018-01-03T18:49:32.573Z,2.25
2018-01-03T18:52:00.179Z,2.26
2018-01-03T18:54:27.726Z,2.18
2018-01-03T18:56:55.294Z,2.13
2018-01-03T18:59:22.889Z,2.05
2018-01-03T19:01:50.444Z,1.95
2018-01-03T19:04:17.995Z,1.86
2018-01-03T19:06:45.651Z,1.81
2018-01-03T19:09:13.194Z,1.72
2018-01-03T19:11:40.752Z,1.60
2018-01-03T19:14:08.364Z,1.47
2018-01-03T19:16:35.931Z,1.38
2018-01-03T19:19:03.498Z,1.33
2018-01-03T19:21:31.219Z,1.29
2018-01-03T19:23:58.775Z,1.24
2018-01-03T19:26:26.362Z,1.14
2018-01-03T19:28:53.958Z,1.10
2018-01-03T19:31:21.544Z,1.09
2018-01-03T19:33:49.093Z,1.10
2018-01-03T19:36:16.688Z,1.10
2018-01-03T19:38:44.268Z,1.06
2018-01-03T19:41:11.845Z,1.06
2018-01-03T19:43:39.441Z,1.11
2018-01-03T19:46:06.999Z,1.18
2018-01-03T19:48:34.552Z,1.21
2018-01-03T19:51:02.158Z,1.18
2018-01-03T19:53:29.822Z,1.14
2018-01-03T19:55:57.547Z,1.14
2018-01-03T19:58:25.148Z,1.15
2018-01-03T20:00:52.720Z,1.11
2018-01-03T20:03:20.305Z,1.11
2018-01-03T20:05:47.905Z,1.02
2018-01-03T20:08:15.458Z,0.97
2018-01-03T20:10:43.071Z,0.95
2018-01-03T20:13:10.666Z,0.98
2018-01-03T20:15:38.233Z,1.00
2018-01-03T20:18:05.794Z,1.03
2018-01-03T20:20:33.415Z,1.04
2018-01-03T20:23:01.163Z,1.10
2018-01-03T20:25:28.752Z,1.14
2018-01-03T20:27:56.354Z,1.17
2018-01-03T20:30:23.932Z,1.17
2018-01-03T20:32:51.481Z,1.14
2018-01-03T20:35:19.095Z,1.12
2018-01-03T20:37:46.669Z,1.07
2018-01-03T20:40:14.253Z,1.00
2018-01-03T20:42:42.018Z,0.96
2018-01-03T20:45:09.607Z,0.90
2018-01-03T20:47:37.269Z,0.90
2018-01-03T20:50:04.887Z,0.83
2018-01-03T20:52:32.460Z,0.78
2018-01-03T20:55:00.038Z,0.76
2018-01-03T20:57:27.634Z,0.69
2018-01-03T20:59:55.200Z,0.73
2018-01-03T21:02:22.777Z,0.75
2018-01-03T21:04:50.408Z,0.76
2018-01-03T21:07:18.024Z,0.74
2018-01-03T21:09:45.582Z,0.81
2018-01-03T21:12:13.203Z,0.78
2018-01-03T21:14:40.776Z,0.74
2018-01-03T21:17:08.980Z,0.70
2018-01-03T21:19:36.600Z,0.69
2018-01-03T21:22:04.155Z,0.59
2018-01-03T21:24:31.782Z,0.58
2018-01-03T21:26:59.363Z,0.54
2018-01-03T21:29:27.017Z,0.49
2018-01-03T21:31:54.589Z,0.47
2018-01-03T21:34:22.201Z,0.43
2018-01-03T21:36:49.785Z,0.37
2018-01-03T21:39:17.369Z,0.36
2018-01-03T21:41:44.988Z,0.35
2018-01-03T21:44:12.590Z,0.35
2018-01-03T21:46:40.144Z,0.32
2018-01-03T21:49:07.757Z,0.29
2018-01-03T21:51:35.329Z,0.28
2018-01-03T21:54:02.914Z,0.31
2018-01-03T21:56:30.508Z,0.27
2018-01-03T21:58:58.073Z,0.22
2018-01-03T22:01:25.648Z,0.17
2018-01-03T22:03:53.264Z,0.11
2018-01-03T22:06:20.836Z,0.12
2018-01-03T22:08:48.411Z,0.16
2018-01-03T22:11:16.019Z,0.17
2018-01-03T22:13:43.568Z,0.16
2018-01-03T22:16:11.155Z,0.15
2018-01-03T22:18:38.743Z,0.15
2018-01-03T22:21:06.309Z,0.13
2018-01-03T22:23:33.870Z,0.11
2018-01-03T22:26:01.471Z,0.07
2018-01-03T22:28:29.049Z,0.08
2018-01-03T22:30:56.610Z,0.08
2018-01-03T22:33:24.186Z,0.10
2018-01-03T22:35:51.916Z,0.16
2018-01-03T22:38:19.488Z,0.23
2018-01-03T22:40:47.104Z,0.30
2018-01-03T22:43:14.694Z,0.37
2018-01-03T22:45:42.278Z,0.40
2018-01-03T22:48:09.890Z,0.42
2018-01-03T22:50:37.575Z,0.46
2018-01-03T22:53:05.190Z,0.53
2018-01-03T22:55:32.831Z,0.53
2018-01-03T22:58:00.399Z,0.60
2018-01-03T23:00:27.983Z,0.60
2018-01-03T23:02:55.592Z,0.63
2018-01-03T23:05:23.185Z,0.62
2018-01-03T23:07:50.766Z,0.50
2018-01-03T23:10:18.388Z,0.34
2018-01-03T23:12:45.957Z,0.40
2018-01-03T23:15:13.562Z,0.40
2018-01-03T23:17:41.377Z,0.45
2018-01-03T23:20:08.956Z,0.45
2018-01-03T23:22:36.591Z,0.47
2018-01-03T23:25:04.174Z,0.49
2018-01-03T23:27:31.762Z,0.52
2018-01-03T23:29:59.361Z,0.54
2018-01-03T23:32:26.950Z,0.52
2018-01-03T23:34:54.678Z,0.51
2018-01-03T23:37:22.399Z,0.53
2018-01-03T23:39:49.987Z,0.56
2018-01-03T23:42:18.486Z,0.55
2018-01-03T23:44:47.851Z,0.56
2018-01-03T23:47:15.582Z,0.56
2018-01-03T23:49:43.249Z,0.56
2018-01-03T23:52:11.769Z,0.54
2018-01-03T23:54:41.825Z,0.49
2018-01-03T23:57:13.736Z,0.46
2018-01-03T23:59:41.358Z,0.45
